sensor_id;sensor_type;location;lat;lon;timestamp;P1;durP1;ratioP1;P2;durP2;ratioP2
63945;SDS011;50122;56.330;43.838;2023-08-30T00:01:25;10.48;;;4.55;;
63945;SDS011;50122;56.330;43.838;2023-08-30T00:03:52;11.55;;;5.05;;
63945;SDS011;50122;56.330;43.838;2023-08-30T00:06:19;8.07;;;4.40;;
63945;SDS011;50122;56.330;43.838;2023-08-30T00:08:46;8.63;;;4.30;;
63945;SDS011;50122;56.330;43.838;2023-08-30T00:11:13;10.43;;;4.57;;
63945;SDS011;50122;56.330;43.838;2023-08-30T00:13:40;10.60;;;4.55;;
63945;SDS011;50122;56.330;43.838;2023-08-30T00:16:10;10.00;;;5.10;;
63945;SDS011;50122;56.330;43.838;2023-08-30T00:18:36;10.45;;;4.63;;
63945;SDS011;50122;56.330;43.838;2023-08-30T00:21:03;8.43;;;4.43;;
63945;SDS011;50122;56.330;43.838;2023-08-30T00:23:31;8.52;;;4.47;;
63945;SDS011;50122;56.330;43.838;2023-08-30T00:25:58;10.85;;;4.80;;
63945;SDS011;50122;56.330;43.838;2023-08-30T00:28:24;7.57;;;4.25;;
63945;SDS011;50122;56.330;43.838;2023-08-30T00:30:53;9.63;;;4.95;;
63945;SDS011;50122;56.330;43.838;2023-08-30T00:33:21;9.68;;;5.20;;
63945;SDS011;50122;56.330;43.838;2023-08-30T00:35:54;11.70;;;6.22;;
63945;SDS011;50122;56.330;43.838;2023-08-30T00:38:25;12.50;;;8.65;;
63945;SDS011;50122;56.330;43.838;2023-08-30T00:40:53;14.70;;;12.32;;
63945;SDS011;50122;56.330;43.838;2023-08-30T00:43:20;14.38;;;11.45;;
63945;SDS011;50122;56.330;43.838;2023-08-30T00:45:47;13.45;;;8.90;;
63945;SDS011;50122;56.330;43.838;2023-08-30T00:48:16;13.35;;;8.07;;
63945;SDS011;50122;56.330;43.838;2023-08-30T00:50:45;11.35;;;7.60;;
63945;SDS011;50122;56.330;43.838;2023-08-30T00:53:12;11.63;;;7.80;;
63945;SDS011;50122;56.330;43.838;2023-08-30T00:55:41;12.95;;;7.45;;
63945;SDS011;50122;56.330;43.838;2023-08-30T00:58:09;12.05;;;7.00;;
63945;SDS011;50122;56.330;43.838;2023-08-30T01:00:41;12.65;;;6.90;;
63945;SDS011;50122;56.330;43.838;2023-08-30T01:03:08;14.82;;;7.32;;
63945;SDS011;50122;56.330;43.838;2023-08-30T01:05:35;12.93;;;7.00;;
63945;SDS011;50122;56.330;43.838;2023-08-30T01:08:02;13.95;;;6.80;;
63945;SDS011;50122;56.330;43.838;2023-08-30T01:10:42;15.10;;;6.60;;
63945;SDS011;50122;56.330;43.838;2023-08-30T01:15:46;15.68;;;5.90;;
63945;SDS011;50122;56.330;43.838;2023-08-30T01:18:17;12.65;;;5.80;;
63945;SDS011;50122;56.330;43.838;2023-08-30T01:20:45;12.93;;;5.60;;
63945;SDS011;50122;56.330;43.838;2023-08-30T01:26:04;11.57;;;6.25;;
63945;SDS011;50122;56.330;43.838;2023-08-30T01:28:36;15.07;;;6.85;;
63945;SDS011;50122;56.330;43.838;2023-08-30T01:31:04;15.75;;;6.18;;
63945;SDS011;50122;56.330;43.838;2023-08-30T01:33:36;15.20;;;5.95;;
63945;SDS011;50122;56.330;43.838;2023-08-30T01:36:04;13.07;;;6.22;;
63945;SDS011;50122;56.330;43.838;2023-08-30T01:38:31;15.75;;;7.03;;
63945;SDS011;50122;56.330;43.838;2023-08-30T01:40:59;14.82;;;7.28;;
63945;SDS011;50122;56.330;43.838;2023-08-30T01:43:27;15.43;;;7.43;;
63945;SDS011;50122;56.330;43.838;2023-08-30T01:45:56;14.98;;;7.53;;
63945;SDS011;50122;56.330;43.838;2023-08-30T01:48:24;18.77;;;8.20;;
63945;SDS011;50122;56.330;43.838;2023-08-30T01:50:53;17.13;;;7.50;;
63945;SDS011;50122;56.330;43.838;2023-08-30T01:53:25;13.95;;;6.70;;
63945;SDS011;50122;56.330;43.838;2023-08-30T01:55:52;11.65;;;6.82;;
63945;SDS011;50122;56.330;43.838;2023-08-30T01:58:19;12.02;;;5.85;;
63945;SDS011;50122;56.330;43.838;2023-08-30T02:00:46;12.43;;;6.07;;
63945;SDS011;50122;56.330;43.838;2023-08-30T02:03:13;13.30;;;6.03;;
63945;SDS011;50122;56.330;43.838;2023-08-30T02:05:57;12.60;;;5.80;;
63945;SDS011;50122;56.330;43.838;2023-08-30T02:11:19;10.25;;;5.55;;
63945;SDS011;50122;56.330;43.838;2023-08-30T02:13:50;10.75;;;5.68;;
63945;SDS011;50122;56.330;43.838;2023-08-30T02:16:19;13.88;;;5.35;;
63945;SDS011;50122;56.330;43.838;2023-08-30T02:18:48;9.75;;;4.85;;
63945;SDS011;50122;56.330;43.838;2023-08-30T02:21:16;14.48;;;5.93;;
63945;SDS011;50122;56.330;43.838;2023-08-30T02:23:43;13.77;;;5.80;;
63945;SDS011;50122;56.330;43.838;2023-08-30T02:26:09;11.27;;;5.38;;
63945;SDS011;50122;56.330;43.838;2023-08-30T02:28:39;48.28;;;7.72;;
63945;SDS011;50122;56.330;43.838;2023-08-30T02:31:05;33.47;;;6.90;;
63945;SDS011;50122;56.330;43.838;2023-08-30T02:33:32;20.00;;;6.28;;
63945;SDS011;50122;56.330;43.838;2023-08-30T02:35:59;13.27;;;5.43;;
63945;SDS011;50122;56.330;43.838;2023-08-30T02:38:25;10.55;;;5.03;;
63945;SDS011;50122;56.330;43.838;2023-08-30T02:40:52;17.20;;;6.45;;
63945;SDS011;50122;56.330;43.838;2023-08-30T02:43:20;13.38;;;5.97;;
63945;SDS011;50122;56.330;43.838;2023-08-30T02:45:51;10.95;;;5.55;;
63945;SDS011;50122;56.330;43.838;2023-08-30T02:48:18;17.77;;;6.55;;
63945;SDS011;50122;56.330;43.838;2023-08-30T02:50:45;14.15;;;5.55;;
63945;SDS011;50122;56.330;43.838;2023-08-30T02:53:12;11.43;;;5.60;;
63945;SDS011;50122;56.330;43.838;2023-08-30T02:55:38;13.40;;;5.60;;
63945;SDS011;50122;56.330;43.838;2023-08-30T02:58:06;13.73;;;5.82;;
63945;SDS011;50122;56.330;43.838;2023-08-30T03:00:33;13.43;;;5.13;;
63945;SDS011;50122;56.330;43.838;2023-08-30T03:03:00;11.93;;;5.45;;
63945;SDS011;50122;56.330;43.838;2023-08-30T03:05:29;13.50;;;5.72;;
63945;SDS011;50122;56.330;43.838;2023-08-30T03:07:55;10.35;;;5.70;;
63945;SDS011;50122;56.330;43.838;2023-08-30T03:10:22;12.48;;;5.32;;
63945;SDS011;50122;56.330;43.838;2023-08-30T03:12:49;14.45;;;5.57;;
63945;SDS011;50122;56.330;43.838;2023-08-30T03:15:16;11.50;;;5.53;;
63945;SDS011;50122;56.330;43.838;2023-08-30T03:17:42;13.57;;;5.38;;
63945;SDS011;50122;56.330;43.838;2023-08-30T03:20:09;12.82;;;5.10;;
63945;SDS011;50122;56.330;43.838;2023-08-30T03:22:36;10.25;;;4.93;;
63945;SDS011;50122;56.330;43.838;2023-08-30T03:25:03;12.27;;;5.07;;
63945;SDS011;50122;56.330;43.838;2023-08-30T03:27:32;11.15;;;5.68;;
63945;SDS011;50122;56.330;43.838;2023-08-30T03:30:01;11.07;;;5.57;;
63945;SDS011;50122;56.330;43.838;2023-08-30T03:32:33;9.98;;;5.30;;
63945;SDS011;50122;56.330;43.838;2023-08-30T03:35:00;12.10;;;5.55;;
63945;SDS011;50122;56.330;43.838;2023-08-30T03:37:26;18.85;;;6.85;;
63945;SDS011;50122;56.330;43.838;2023-08-30T03:39:53;17.13;;;7.35;;
63945;SDS011;50122;56.330;43.838;2023-08-30T03:42:20;19.48;;;9.50;;
63945;SDS011;50122;56.330;43.838;2023-08-30T03:44:46;16.85;;;8.25;;
63945;SDS011;50122;56.330;43.838;2023-08-30T03:47:14;25.73;;;11.88;;
63945;SDS011;50122;56.330;43.838;2023-08-30T03:49:40;23.30;;;12.23;;
63945;SDS011;50122;56.330;43.838;2023-08-30T03:52:08;19.05;;;11.60;;
63945;SDS011;50122;56.330;43.838;2023-08-30T03:54:35;26.40;;;12.77;;
63945;SDS011;50122;56.330;43.838;2023-08-30T03:57:02;22.83;;;11.77;;
63945;SDS011;50122;56.330;43.838;2023-08-30T03:59:29;24.05;;;13.43;;
63945;SDS011;50122;56.330;43.838;2023-08-30T04:01:56;24.15;;;14.63;;
63945;SDS011;50122;56.330;43.838;2023-08-30T04:04:22;24.63;;;15.65;;
63945;SDS011;50122;56.330;43.838;2023-08-30T04:06:49;32.35;;;17.52;;
63945;SDS011;50122;56.330;43.838;2023-08-30T04:09:16;26.58;;;15.20;;
63945;SDS011;50122;56.330;43.838;2023-08-30T04:11:43;26.25;;;15.30;;
63945;SDS011;50122;56.330;43.838;2023-08-30T04:14:10;28.63;;;16.05;;
63945;SDS011;50122;56.330;43.838;2023-08-30T04:16:38;25.05;;;16.35;;
63945;SDS011;50122;56.330;43.838;2023-08-30T04:19:05;30.40;;;15.70;;
63945;SDS011;50122;56.330;43.838;2023-08-30T04:21:31;24.23;;;14.57;;
63945;SDS011;50122;56.330;43.838;2023-08-30T04:23:58;25.85;;;14.98;;
63945;SDS011;50122;56.330;43.838;2023-08-30T04:26:24;22.77;;;11.52;;
63945;SDS011;50122;56.330;43.838;2023-08-30T04:28:51;18.80;;;10.45;;
63945;SDS011;50122;56.330;43.838;2023-08-30T04:31:19;18.98;;;11.10;;
63945;SDS011;50122;56.330;43.838;2023-08-30T04:33:45;20.17;;;11.48;;
63945;SDS011;50122;56.330;43.838;2023-08-30T04:36:12;18.80;;;11.02;;
63945;SDS011;50122;56.330;43.838;2023-08-30T04:38:39;21.38;;;13.57;;
63945;SDS011;50122;56.330;43.838;2023-08-30T04:41:21;21.08;;;13.80;;
63945;SDS011;50122;56.330;43.838;2023-08-30T04:43:48;25.27;;;14.45;;
63945;SDS011;50122;56.330;43.838;2023-08-30T04:46:15;25.63;;;14.63;;
63945;SDS011;50122;56.330;43.838;2023-08-30T04:48:41;25.15;;;14.68;;
63945;SDS011;50122;56.330;43.838;2023-08-30T04:51:09;21.42;;;14.30;;
63945;SDS011;50122;56.330;43.838;2023-08-30T04:53:35;24.63;;;13.07;;
63945;SDS011;50122;56.330;43.838;2023-08-30T04:56:09;24.23;;;12.40;;
63945;SDS011;50122;56.330;43.838;2023-08-30T04:58:37;24.45;;;12.38;;
63945;SDS011;50122;56.330;43.838;2023-08-30T05:01:03;23.08;;;12.20;;
63945;SDS011;50122;56.330;43.838;2023-08-30T05:03:31;17.75;;;10.40;;
63945;SDS011;50122;56.330;43.838;2023-08-30T05:05:58;19.45;;;10.90;;
63945;SDS011;50122;56.330;43.838;2023-08-30T05:08:25;16.90;;;10.27;;
63945;SDS011;50122;56.330;43.838;2023-08-30T05:10:55;21.23;;;10.30;;
63945;SDS011;50122;56.330;43.838;2023-08-30T05:13:21;20.00;;;10.57;;
63945;SDS011;50122;56.330;43.838;2023-08-30T05:15:48;23.45;;;10.80;;
63945;SDS011;50122;56.330;43.838;2023-08-30T05:18:15;23.90;;;10.82;;
63945;SDS011;50122;56.330;43.838;2023-08-30T05:20:41;19.05;;;9.65;;
63945;SDS011;50122;56.330;43.838;2023-08-30T05:23:08;20.75;;;9.35;;
63945;SDS011;50122;56.330;43.838;2023-08-30T05:25:35;15.50;;;9.43;;
63945;SDS011;50122;56.330;43.838;2023-08-30T05:28:02;23.52;;;10.48;;
63945;SDS011;50122;56.330;43.838;2023-08-30T05:30:30;18.30;;;9.52;;
63945;SDS011;50122;56.330;43.838;2023-08-30T05:32:57;18.42;;;9.25;;
63945;SDS011;50122;56.330;43.838;2023-08-30T05:35:24;15.77;;;9.00;;
63945;SDS011;50122;56.330;43.838;2023-08-30T05:37:51;13.55;;;8.27;;
63945;SDS011;50122;56.330;43.838;2023-08-30T05:40:18;17.98;;;8.85;;
63945;SDS011;50122;56.330;43.838;2023-08-30T05:42:47;14.65;;;8.30;;
63945;SDS011;50122;56.330;43.838;2023-08-30T05:45:14;14.60;;;8.10;;
63945;SDS011;50122;56.330;43.838;2023-08-30T05:47:40;11.55;;;6.72;;
63945;SDS011;50122;56.330;43.838;2023-08-30T05:50:08;12.57;;;6.78;;
63945;SDS011;50122;56.330;43.838;2023-08-30T05:52:35;12.52;;;6.13;;
63945;SDS011;50122;56.330;43.838;2023-08-30T05:55:01;15.10;;;6.68;;
63945;SDS011;50122;56.330;43.838;2023-08-30T05:57:29;13.75;;;6.30;;
63945;SDS011;50122;56.330;43.838;2023-08-30T06:00:00;12.48;;;5.80;;
63945;SDS011;50122;56.330;43.838;2023-08-30T06:02:27;14.50;;;5.85;;
63945;SDS011;50122;56.330;43.838;2023-08-30T06:04:55;13.40;;;6.60;;
63945;SDS011;50122;56.330;43.838;2023-08-30T06:07:41;12.77;;;5.20;;
63945;SDS011;50122;56.330;43.838;2023-08-30T06:10:08;9.32;;;4.68;;
63945;SDS011;50122;56.330;43.838;2023-08-30T06:12:35;12.38;;;4.30;;
63945;SDS011;50122;56.330;43.838;2023-08-30T06:15:02;10.18;;;4.50;;
63945;SDS011;50122;56.330;43.838;2023-08-30T06:17:30;9.40;;;4.32;;
63945;SDS011;50122;56.330;43.838;2023-08-30T06:19:56;8.13;;;3.30;;
63945;SDS011;50122;56.330;43.838;2023-08-30T06:22:23;7.88;;;3.40;;
63945;SDS011;50122;56.330;43.838;2023-08-30T06:24:51;9.30;;;3.55;;
63945;SDS011;50122;56.330;43.838;2023-08-30T06:27:18;8.40;;;3.60;;
63945;SDS011;50122;56.330;43.838;2023-08-30T06:29:45;6.53;;;3.53;;
63945;SDS011;50122;56.330;43.838;2023-08-30T06:32:12;7.90;;;3.50;;
63945;SDS011;50122;56.330;43.838;2023-08-30T06:34:38;6.85;;;3.22;;
63945;SDS011;50122;56.330;43.838;2023-08-30T06:37:05;5.57;;;2.92;;
63945;SDS011;50122;56.330;43.838;2023-08-30T06:39:32;12.90;;;6.50;;
63945;SDS011;50122;56.330;43.838;2023-08-30T06:42:00;12.02;;;4.38;;
63945;SDS011;50122;56.330;43.838;2023-08-30T06:44:27;8.77;;;3.30;;
63945;SDS011;50122;56.330;43.838;2023-08-30T06:46:58;4.72;;;2.28;;
63945;SDS011;50122;56.330;43.838;2023-08-30T06:49:28;8.30;;;2.50;;
63945;SDS011;50122;56.330;43.838;2023-08-30T06:51:55;7.47;;;2.25;;
63945;SDS011;50122;56.330;43.838;2023-08-30T06:54:22;7.93;;;2.50;;
63945;SDS011;50122;56.330;43.838;2023-08-30T06:56:58;5.38;;;2.40;;
63945;SDS011;50122;56.330;43.838;2023-08-30T06:59:28;13.57;;;3.03;;
63945;SDS011;50122;56.330;43.838;2023-08-30T07:01:55;37.95;;;3.50;;
63945;SDS011;50122;56.330;43.838;2023-08-30T07:04:22;21.55;;;3.22;;
63945;SDS011;50122;56.330;43.838;2023-08-30T07:06:48;6.38;;;2.80;;
63945;SDS011;50122;56.330;43.838;2023-08-30T07:09:15;7.65;;;2.90;;
63945;SDS011;50122;56.330;43.838;2023-08-30T07:11:43;6.88;;;2.35;;
63945;SDS011;50122;56.330;43.838;2023-08-30T07:14:11;7.13;;;2.30;;
63945;SDS011;50122;56.330;43.838;2023-08-30T07:16:40;11.02;;;2.50;;
63945;SDS011;50122;56.330;43.838;2023-08-30T07:19:07;6.82;;;2.58;;
63945;SDS011;50122;56.330;43.838;2023-08-30T07:21:34;9.25;;;3.05;;
63945;SDS011;50122;56.330;43.838;2023-08-30T07:24:05;7.43;;;2.78;;
63945;SDS011;50122;56.330;43.838;2023-08-30T07:26:33;6.05;;;2.00;;
63945;SDS011;50122;56.330;43.838;2023-08-30T07:29:01;4.43;;;2.40;;
63945;SDS011;50122;56.330;43.838;2023-08-30T07:31:31;4.13;;;1.92;;
63945;SDS011;50122;56.330;43.838;2023-08-30T07:33:59;3.88;;;1.55;;
63945;SDS011;50122;56.330;43.838;2023-08-30T07:36:26;3.08;;;1.67;;
63945;SDS011;50122;56.330;43.838;2023-08-30T07:39:12;4.60;;;1.90;;
63945;SDS011;50122;56.330;43.838;2023-08-30T07:41:39;6.68;;;1.80;;
63945;SDS011;50122;56.330;43.838;2023-08-30T07:44:05;3.33;;;1.75;;
63945;SDS011;50122;56.330;43.838;2023-08-30T07:46:32;8.30;;;1.80;;
63945;SDS011;50122;56.330;43.838;2023-08-30T07:48:59;4.35;;;1.80;;
63945;SDS011;50122;56.330;43.838;2023-08-30T07:51:28;8.32;;;2.30;;
63945;SDS011;50122;56.330;43.838;2023-08-30T07:53:55;4.38;;;1.70;;
63945;SDS011;50122;56.330;43.838;2023-08-30T07:56:22;5.80;;;2.00;;
63945;SDS011;50122;56.330;43.838;2023-08-30T07:58:49;4.13;;;1.83;;
63945;SDS011;50122;56.330;43.838;2023-08-30T08:04:14;5.93;;;1.80;;
63945;SDS011;50122;56.330;43.838;2023-08-30T08:06:41;5.18;;;2.00;;
63945;SDS011;50122;56.330;43.838;2023-08-30T08:09:21;4.57;;;1.83;;
63945;SDS011;50122;56.330;43.838;2023-08-30T08:11:49;4.22;;;1.80;;
63945;SDS011;50122;56.330;43.838;2023-08-30T08:14:16;7.45;;;1.90;;
63945;SDS011;50122;56.330;43.838;2023-08-30T08:16:43;4.03;;;2.15;;
63945;SDS011;50122;56.330;43.838;2023-08-30T08:19:10;3.38;;;1.73;;
63945;SDS011;50122;56.330;43.838;2023-08-30T08:21:44;5.00;;;2.20;;
63945;SDS011;50122;56.330;43.838;2023-08-30T08:27:09;5.32;;;2.55;;
63945;SDS011;50122;56.330;43.838;2023-08-30T08:29:39;4.28;;;2.10;;
63945;SDS011;50122;56.330;43.838;2023-08-30T08:32:06;6.10;;;2.10;;
63945;SDS011;50122;56.330;43.838;2023-08-30T08:34:32;4.05;;;2.13;;
63945;SDS011;50122;56.330;43.838;2023-08-30T08:37:00;6.43;;;2.40;;
63945;SDS011;50122;56.330;43.838;2023-08-30T08:39:27;4.07;;;1.98;;
63945;SDS011;50122;56.330;43.838;2023-08-30T08:41:53;6.45;;;2.20;;
63945;SDS011;50122;56.330;43.838;2023-08-30T08:44:21;6.07;;;2.40;;
63945;SDS011;50122;56.330;43.838;2023-08-30T08:46:52;6.18;;;2.10;;
63945;SDS011;50122;56.330;43.838;2023-08-30T08:49:19;4.97;;;2.17;;
63945;SDS011;50122;56.330;43.838;2023-08-30T08:51:46;5.05;;;2.30;;
63945;SDS011;50122;56.330;43.838;2023-08-30T08:54:13;5.10;;;2.30;;
63945;SDS011;50122;56.330;43.838;2023-08-30T08:56:39;8.30;;;2.78;;
63945;SDS011;50122;56.330;43.838;2023-08-30T08:59:08;5.00;;;2.60;;
63945;SDS011;50122;56.330;43.838;2023-08-30T09:01:36;5.90;;;2.50;;
63945;SDS011;50122;56.330;43.838;2023-08-30T09:04:07;5.38;;;2.30;;
63945;SDS011;50122;56.330;43.838;2023-08-30T09:06:35;4.88;;;2.55;;
63945;SDS011;50122;56.330;43.838;2023-08-30T09:09:05;5.03;;;2.63;;
63945;SDS011;50122;56.330;43.838;2023-08-30T09:11:32;5.70;;;2.50;;
63945;SDS011;50122;56.330;43.838;2023-08-30T09:14:17;5.38;;;2.30;;
63945;SDS011;50122;56.330;43.838;2023-08-30T09:17:00;5.03;;;2.15;;
63945;SDS011;50122;56.330;43.838;2023-08-30T09:19:33;4.72;;;2.20;;
63945;SDS011;50122;56.330;43.838;2023-08-30T09:22:00;4.38;;;2.10;;
63945;SDS011;50122;56.330;43.838;2023-08-30T09:24:37;5.50;;;2.50;;
63945;SDS011;50122;56.330;43.838;2023-08-30T09:27:05;6.65;;;2.42;;
63945;SDS011;50122;56.330;43.838;2023-08-30T09:29:32;4.45;;;2.20;;
63945;SDS011;50122;56.330;43.838;2023-08-30T09:32:00;5.22;;;2.28;;
63945;SDS011;50122;56.330;43.838;2023-08-30T09:34:28;7.22;;;2.30;;
63945;SDS011;50122;56.330;43.838;2023-08-30T09:36:55;7.28;;;2.05;;
63945;SDS011;50122;56.330;43.838;2023-08-30T09:39:22;4.50;;;1.95;;
63945;SDS011;50122;56.330;43.838;2023-08-30T09:41:50;4.60;;;2.22;;
63945;SDS011;50122;56.330;43.838;2023-08-30T09:44:18;4.18;;;2.00;;
63945;SDS011;50122;56.330;43.838;2023-08-30T09:46:52;3.80;;;2.07;;
63945;SDS011;50122;56.330;43.838;2023-08-30T09:49:24;4.80;;;2.30;;
63945;SDS011;50122;56.330;43.838;2023-08-30T09:51:53;10.52;;;7.68;;
63945;SDS011;50122;56.330;43.838;2023-08-30T09:54:22;4.70;;;2.20;;
63945;SDS011;50122;56.330;43.838;2023-08-30T09:56:53;5.63;;;2.20;;
63945;SDS011;50122;56.330;43.838;2023-08-30T09:59:25;6.70;;;2.05;;
63945;SDS011;50122;56.330;43.838;2023-08-30T10:01:53;5.38;;;2.05;;
63945;SDS011;50122;56.330;43.838;2023-08-30T10:04:21;4.65;;;2.25;;
63945;SDS011;50122;56.330;43.838;2023-08-30T10:06:51;6.60;;;2.22;;
63945;SDS011;50122;56.330;43.838;2023-08-30T10:09:18;4.22;;;1.90;;
63945;SDS011;50122;56.330;43.838;2023-08-30T10:11:46;6.60;;;2.40;;
63945;SDS011;50122;56.330;43.838;2023-08-30T10:14:14;4.90;;;2.22;;
63945;SDS011;50122;56.330;43.838;2023-08-30T10:16:42;3.72;;;2.25;;
63945;SDS011;50122;56.330;43.838;2023-08-30T10:19:11;3.90;;;2.20;;
63945;SDS011;50122;56.330;43.838;2023-08-30T10:21:47;4.88;;;2.00;;
63945;SDS011;50122;56.330;43.838;2023-08-30T10:24:16;3.55;;;1.88;;
63945;SDS011;50122;56.330;43.838;2023-08-30T10:27:00;3.27;;;1.90;;
63945;SDS011;50122;56.330;43.838;2023-08-30T10:29:31;5.80;;;2.10;;
63945;SDS011;50122;56.330;43.838;2023-08-30T10:32:02;6.40;;;2.35;;
63945;SDS011;50122;56.330;43.838;2023-08-30T10:34:33;9.85;;;2.10;;
63945;SDS011;50122;56.330;43.838;2023-08-30T10:37:01;6.03;;;2.30;;
63945;SDS011;50122;56.330;43.838;2023-08-30T10:44:52;4.85;;;1.80;;
63945;SDS011;50122;56.330;43.838;2023-08-30T10:47:36;5.70;;;2.00;;
63945;SDS011;50122;56.330;43.838;2023-08-30T10:50:06;3.47;;;1.88;;
63945;SDS011;50122;56.330;43.838;2023-08-30T10:52:34;4.45;;;2.10;;
63945;SDS011;50122;56.330;43.838;2023-08-30T10:55:05;4.15;;;1.90;;
63945;SDS011;50122;56.330;43.838;2023-08-30T10:57:35;3.63;;;1.90;;
63945;SDS011;50122;56.330;43.838;2023-08-30T11:02:43;6.63;;;1.95;;
63945;SDS011;50122;56.330;43.838;2023-08-30T11:05:12;4.68;;;2.20;;
63945;SDS011;50122;56.330;43.838;2023-08-30T11:07:41;5.80;;;2.17;;
63945;SDS011;50122;56.330;43.838;2023-08-30T11:10:08;4.28;;;1.80;;
63945;SDS011;50122;56.330;43.838;2023-08-30T11:12:35;4.43;;;1.90;;
63945;SDS011;50122;56.330;43.838;2023-08-30T11:15:02;5.10;;;2.00;;
63945;SDS011;50122;56.330;43.838;2023-08-30T11:17:29;7.43;;;2.17;;
63945;SDS011;50122;56.330;43.838;2023-08-30T11:20:05;4.30;;;2.17;;
63945;SDS011;50122;56.330;43.838;2023-08-30T11:22:42;3.55;;;2.22;;
63945;SDS011;50122;56.330;43.838;2023-08-30T11:25:11;3.63;;;2.00;;
63945;SDS011;50122;56.330;43.838;2023-08-30T11:27:39;3.65;;;1.67;;
63945;SDS011;50122;56.330;43.838;2023-08-30T11:30:07;4.82;;;2.08;;
63945;SDS011;50122;56.330;43.838;2023-08-30T11:32:36;5.38;;;2.08;;
63945;SDS011;50122;56.330;43.838;2023-08-30T11:35:05;7.40;;;2.08;;
63945;SDS011;50122;56.330;43.838;2023-08-30T11:37:33;6.90;;;2.20;;
63945;SDS011;50122;56.330;43.838;2023-08-30T11:40:03;5.88;;;2.17;;
63945;SDS011;50122;56.330;43.838;2023-08-30T11:42:32;4.15;;;2.00;;
63945;SDS011;50122;56.330;43.838;2023-08-30T11:45:00;5.35;;;2.40;;
63945;SDS011;50122;56.330;43.838;2023-08-30T11:47:27;4.50;;;2.13;;
63945;SDS011;50122;56.330;43.838;2023-08-30T11:49:57;6.28;;;2.20;;
63945;SDS011;50122;56.330;43.838;2023-08-30T11:52:25;4.20;;;2.10;;
63945;SDS011;50122;56.330;43.838;2023-08-30T11:54:53;7.13;;;2.47;;
63945;SDS011;50122;56.330;43.838;2023-08-30T11:57:21;6.90;;;2.35;;
63945;SDS011;50122;56.330;43.838;2023-08-30T11:59:49;5.38;;;2.28;;
63945;SDS011;50122;56.330;43.838;2023-08-30T12:02:17;5.00;;;2.38;;
63945;SDS011;50122;56.330;43.838;2023-08-30T12:04:45;4.70;;;2.20;;
63945;SDS011;50122;56.330;43.838;2023-08-30T12:07:24;4.20;;;2.22;;
63945;SDS011;50122;56.330;43.838;2023-08-30T12:12:35;4.65;;;2.42;;
63945;SDS011;50122;56.330;43.838;2023-08-30T12:15:09;5.15;;;2.38;;
63945;SDS011;50122;56.330;43.838;2023-08-30T12:17:37;3.90;;;2.10;;
63945;SDS011;50122;56.330;43.838;2023-08-30T12:20:04;5.60;;;2.00;;
63945;SDS011;50122;56.330;43.838;2023-08-30T12:22:49;4.22;;;2.20;;
63945;SDS011;50122;56.330;43.838;2023-08-30T12:25:20;5.55;;;2.10;;
63945;SDS011;50122;56.330;43.838;2023-08-30T12:27:51;7.28;;;2.30;;
63945;SDS011;50122;56.330;43.838;2023-08-30T12:30:19;5.72;;;2.30;;
63945;SDS011;50122;56.330;43.838;2023-08-30T12:32:46;15.45;;;13.82;;
63945;SDS011;50122;56.330;43.838;2023-08-30T12:35:14;10.10;;;2.30;;
63945;SDS011;50122;56.330;43.838;2023-08-30T12:37:41;5.10;;;2.50;;
63945;SDS011;50122;56.330;43.838;2023-08-30T12:40:09;5.82;;;2.30;;
63945;SDS011;50122;56.330;43.838;2023-08-30T12:42:36;10.20;;;2.30;;
63945;SDS011;50122;56.330;43.838;2023-08-30T12:45:05;6.68;;;2.20;;
63945;SDS011;50122;56.330;43.838;2023-08-30T12:47:33;6.47;;;2.28;;
63945;SDS011;50122;56.330;43.838;2023-08-30T12:50:00;7.72;;;2.30;;
63945;SDS011;50122;56.330;43.838;2023-08-30T12:52:27;4.15;;;2.08;;
63945;SDS011;50122;56.330;43.838;2023-08-30T12:55:01;7.38;;;2.30;;
63945;SDS011;50122;56.330;43.838;2023-08-30T12:57:27;5.72;;;2.25;;
63945;SDS011;50122;56.330;43.838;2023-08-30T12:59:54;4.65;;;2.30;;
63945;SDS011;50122;56.330;43.838;2023-08-30T13:02:22;7.65;;;2.58;;
63945;SDS011;50122;56.330;43.838;2023-08-30T17:50:42;31.00;;;10.40;;
63945;SDS011;50122;56.330;43.838;2023-08-30T17:53:14;24.85;;;11.98;;
63945;SDS011;50122;56.330;43.838;2023-08-30T17:55:42;33.03;;;12.73;;
63945;SDS011;50122;56.330;43.838;2023-08-30T17:58:08;23.15;;;12.15;;
63945;SDS011;50122;56.330;43.838;2023-08-30T18:00:35;29.13;;;10.95;;
63945;SDS011;50122;56.330;43.838;2023-08-30T18:03:02;24.88;;;11.63;;
63945;SDS011;50122;56.330;43.838;2023-08-30T18:05:30;37.35;;;11.45;;
63945;SDS011;50122;56.330;43.838;2023-08-30T18:07:57;40.88;;;12.65;;
63945;SDS011;50122;56.330;43.838;2023-08-30T18:10:23;37.38;;;11.65;;
63945;SDS011;50122;56.330;43.838;2023-08-30T18:12:51;30.17;;;10.45;;
63945;SDS011;50122;56.330;43.838;2023-08-30T18:15:17;40.03;;;10.80;;
63945;SDS011;50122;56.330;43.838;2023-08-30T18:17:44;32.40;;;9.75;;
63945;SDS011;50122;56.330;43.838;2023-08-30T18:20:11;66.75;;;11.70;;
63945;SDS011;50122;56.330;43.838;2023-08-30T18:22:41;93.93;;;13.52;;
63945;SDS011;50122;56.330;43.838;2023-08-30T18:25:08;34.67;;;11.38;;
63945;SDS011;50122;56.330;43.838;2023-08-30T18:27:36;29.98;;;9.63;;
63945;SDS011;50122;56.330;43.838;2023-08-30T18:30:03;30.75;;;10.07;;
63945;SDS011;50122;56.330;43.838;2023-08-30T18:32:32;28.52;;;9.68;;
63945;SDS011;50122;56.330;43.838;2023-08-30T18:34:59;25.45;;;9.73;;
63945;SDS011;50122;56.330;43.838;2023-08-30T18:37:26;23.30;;;9.32;;
63945;SDS011;50122;56.330;43.838;2023-08-30T18:39:53;23.25;;;9.45;;
63945;SDS011;50122;56.330;43.838;2023-08-30T18:42:20;24.73;;;9.57;;
63945;SDS011;50122;56.330;43.838;2023-08-30T18:44:47;19.67;;;9.23;;
63945;SDS011;50122;56.330;43.838;2023-08-30T18:47:14;20.67;;;9.20;;
63945;SDS011;50122;56.330;43.838;2023-08-30T18:49:43;17.55;;;8.85;;
63945;SDS011;50122;56.330;43.838;2023-08-30T18:52:12;26.20;;;10.20;;
63945;SDS011;50122;56.330;43.838;2023-08-30T18:54:38;21.80;;;9.95;;
63945;SDS011;50122;56.330;43.838;2023-08-30T18:57:17;21.45;;;10.38;;
63945;SDS011;50122;56.330;43.838;2023-08-30T18:59:44;24.38;;;10.93;;
63945;SDS011;50122;56.330;43.838;2023-08-30T19:02:11;23.50;;;11.55;;
63945;SDS011;50122;56.330;43.838;2023-08-30T19:04:40;20.95;;;11.10;;
63945;SDS011;50122;56.330;43.838;2023-08-30T19:07:07;25.25;;;10.93;;
63945;SDS011;50122;56.330;43.838;2023-08-30T19:09:35;27.05;;;11.63;;
63945;SDS011;50122;56.330;43.838;2023-08-30T19:12:02;20.65;;;12.23;;
63945;SDS011;50122;56.330;43.838;2023-08-30T19:14:29;26.50;;;13.02;;
63945;SDS011;50122;56.330;43.838;2023-08-30T19:16:55;23.38;;;12.95;;
63945;SDS011;50122;56.330;43.838;2023-08-30T19:19:22;26.95;;;13.70;;
63945;SDS011;50122;56.330;43.838;2023-08-30T19:21:49;40.45;;;13.93;;
63945;SDS011;50122;56.330;43.838;2023-08-30T19:24:21;30.15;;;13.45;;
63945;SDS011;50122;56.330;43.838;2023-08-30T19:26:48;29.38;;;14.13;;
63945;SDS011;50122;56.330;43.838;2023-08-30T19:29:15;33.72;;;15.38;;
63945;SDS011;50122;56.330;43.838;2023-08-30T19:31:42;31.40;;;13.57;;
63945;SDS011;50122;56.330;43.838;2023-08-30T19:34:10;42.13;;;13.48;;
63945;SDS011;50122;56.330;43.838;2023-08-30T19:36:39;23.73;;;12.35;;
63945;SDS011;50122;56.330;43.838;2023-08-30T19:39:06;26.30;;;14.23;;
63945;SDS011;50122;56.330;43.838;2023-08-30T19:41:34;26.52;;;13.07;;